Flight Track Log - Related Links

Times and Time Zones

All times are in EDT time to prevent confusion due to time zone crossing. See the RPA3392 flight status page for this flight to view local times or setup timezone preferences in your user account.

Time Position Orientation Groundspeed Altitude Reporting Facility
EDT Latitude Longitude Course Direction KTS MPH feet Rate Location/Type
Fri 10:34:52 PM 38.8167 -77.0333 38° Northeast 155 178 1,400  Level Potomac TRACON
Fri 10:37:13 PM 38.7742 -76.9631 128° Southeast 131 151 6,100 2,149 Climbing Washington Center
Fri 10:38:00 PM 39.1676 -76.0257 81° East  Level FlightAware Approximate
Fri 10:38:13 PM 38.8475 -76.9322 18° North 159 183 8,600  Level Washington Center
Fri 10:39:00 PM 39.2165 -75.8203 47° Northeast  Level FlightAware Approximate
Fri 10:39:13 PM 38.8922 -76.8506 55° Northeast 224 258 10,800  Level Washington Center
Fri 10:40:00 PM 39.3454 -75.6713 38° Northeast  Level FlightAware Approximate
Fri 10:40:12 PM 38.9350 -76.7444 63° Northeast 279 321 12,200  Level Washington Center
Fri 10:41:13 PM 38.9775 -76.6383 63° Northeast 307 353 15,000 2,850 Climbing Washington Center
Fri 10:42:12 PM 39.0097 -76.5372 68° East 314 361 17,900 2,017 Climbing Washington Center
Fri 10:43:12 PM 39.0106 -76.4225 89° East 309 356 19,000 1,438 Climbing Washington Center
Fri 10:44:13 PM 39.0197 -76.3022 84° East 321 369 20,800 1,736 Climbing Washington Center
Fri 10:45:13 PM 39.0597 -76.1958 64° Northeast 321 369 22,500 1,068 Climbing Washington Center
Fri 10:46:11 PM 39.1125 -76.0839 59° Northeast 334 384 22,900 252 Climbing Washington Center
Fri 10:47:12 PM 39.1608 -75.9636 63° Northeast 347 399 23,000 492 Climbing Washington Center
Fri 10:48:13 PM 39.2172 -75.8489 58° Northeast 366 421 23,900 950 Climbing Washington Center
Fri 10:49:12 PM 39.2925 -75.7525 45° Northeast 372 428 24,900 807 Climbing Washington Center
Fri 10:50:12 PM 39.3719 -75.6506 45° Northeast 382 440 25,500 756 Climbing Washington Center
Fri 10:51:11 PM 39.4531 -75.5458 45° Northeast 393 452 26,400 893 Climbing Washington Center
Fri 10:52:13 PM 39.5364 -75.4381 45° Northeast 404 465 27,300 813 Climbing Washington Center
Fri 10:54:23 PM 39.7158 -75.1942 46° Northeast 420 483 29,000 537 Climbing New York Center
Fri 10:55:23 PM 39.7972 -75.0778 48° Northeast 429 494 29,000  Level New York Center
Fri 10:56:21 PM 39.8786 -74.9608 48° Northeast 429 494 29,000  Level New York Center
Fri 10:57:21 PM 39.9578 -74.8464 48° Northeast 429 494 29,000  Level New York Center
Fri 10:58:22 PM 40.0489 -74.7433 41° Northeast 424 488 29,000  Level New York Center
Fri 10:59:22 PM 40.1356 -74.6425 42° Northeast 418 481 29,000  Level New York Center
Fri 11:00:20 PM 40.2244 -74.5386 42° Northeast 413 475 29,000  Level New York Center
Fri 11:01:23 PM 40.3197 -74.4186 44° Northeast 413 475 29,000 -36 Level New York Center
Fri 11:03:08 PM 40.4772 -74.2297 42° Northeast 446 513 28,900 -400 Descending Boston Center
Fri 11:04:08 PM 40.5664 -74.1258 41° Northeast 446 513 27,900 -900 Descending Boston Center
Fri 11:05:08 PM 40.6322 -74.0425 44° Northeast 432 497 27,100 -1,400 Descending Boston Center
Fri 11:06:08 PM 40.7272 -73.9408 39° Northeast 407 468 25,100 -1,550 Descending Boston Center
Fri 11:07:08 PM 40.8078 -73.8439 42° Northeast 396 456 24,000 -550 Descending Boston Center
Fri 11:08:08 PM 40.8922 -73.7442 42° Northeast 396 456 24,000  Level Boston Center
Fri 11:09:08 PM 40.9792 -73.6306 45° Northeast 396 456 24,000  Level Boston Center
Fri 11:10:08 PM 41.0528 -73.5467 41° Northeast 396 456 24,000 -250 Level Boston Center
Fri 11:11:08 PM 41.1331 -73.4514 42° Northeast 396 456 23,500 -750 Descending Boston Center
Fri 11:12:08 PM 41.2131 -73.3533 43° Northeast 396 456 22,500 -1,000 Descending Boston Center
Fri 11:13:08 PM 41.2908 -73.2606 42° Northeast 390 449 21,500 -1,050 Descending Boston Center
Fri 11:14:08 PM 41.3725 -73.1925 32° Northeast 371 427 20,400 -1,050 Descending Boston Center
Fri 11:15:08 PM 41.4725 -73.2131 351° North 332 382 19,400 -1,000 Descending Boston Center
Fri 11:16:08 PM 41.5681 -73.2614 339° North 338 389 18,400 -850 Descending Boston Center
Fri 11:17:08 PM 41.6719 -73.3072 342° North 350 403 17,700 -850 Descending Boston Center
Fri 11:18:08 PM 41.7653 -73.3475 342° North 361 415 16,700 -950 Descending Boston Center
Fri 11:19:08 PM 41.8483 -73.3850 341° North 350 403 15,800 -850 Descending Boston Center
Fri 11:20:08 PM 41.9522 -73.4339 341° North 356 410 15,000 -571 Descending Boston Center
Fri 11:20:53 PM 42.0247 -73.4658 342° North 360 414 14,800 -400 Descending Boston Center
Fri 11:21:08 PM 42.0372 -73.4714 342° North 356 410 14,600 -1,286 Descending Boston Center
Fri 11:21:35 PM 42.0933 -73.4978 341° North 360 414 13,900 -1,400 Descending Boston Center
Fri 11:22:08 PM 42.1389 -73.5236 337° Northwest 356 410 13,200 -1,279 Descending Boston Center
Fri 11:22:36 PM 42.1825 -73.5411 343° North 348 400 12,600 -1,300 Descending Boston Center
Fri 11:23:08 PM 42.2261 -73.5617 341° North 339 390 11,900 -1,400 Descending Boston Center
Fri 11:23:36 PM 42.2633 -73.5764 344° North 301 346 11,200 -1,500 Descending Boston Center
Fri 11:24:08 PM 42.3028 -73.5967 339° North 314 361 10,400 -1,770 Descending Boston Center
Fri 11:24:37 PM 42.3381 -73.6114 343° North 278 320 9,400 -1,700 Descending Boston Center
Fri 11:25:08 PM 42.3692 -73.6258 341° North 277 319 8,700 -1,672 Descending Boston Center
Fri 11:25:38 PM 42.4108 -73.6436 343° North 278 320 7,700 -2,100 Descending Boston Center
Fri 11:26:08 PM 42.4522 -73.6586 345° North 272 313 6,600 -1,800 Descending Boston Center
Fri 11:26:38 PM 42.4875 -73.6675 349° North 274 315 5,900 -1,500 Descending Boston Center
Fri 11:27:08 PM 42.5189 -73.6683 359° North 272 313 5,100 -1,869 Descending Boston Center
Fri 11:27:39 PM 42.5686 -73.6778 352° North 270 311 4,000 -1,100 Descending Boston Center
Fri 11:28:08 PM 42.6019 -73.6783 359° North 272 313 4,000  Level Boston Center
Fri 11:28:40 PM 42.6436 -73.6875 351° North 272 313 4,000 -200 Level Boston Center
Fri 11:29:08 PM 42.6686 -73.6881 359° North 272 313 3,800 -1,300 Descending Boston Center
Fri 11:29:40 PM 42.7164 -73.6947 354° North 269 310 2,700 -1,500 Descending Boston Center
Fri 11:30:08 PM 42.7478 -73.7011 351° North 272 313 2,300 -492 Descending Boston Center
Fri 11:30:41 PM 42.7853 -73.7047 356° North 231 266 2,200 -300 Descending Boston Center
Fri 11:31:08 PM 42.8039 -73.7106 347° North 242 278 2,000 -200 Descending Boston Center
Fri 11:31:41 PM 42.8264 -73.7481 309° West 188 216 2,000  Level Boston Center

Login

Don't have an account? Register now (free) for customized features, flight alerts, and more!